createdAt,value
2022-11-24T00:03:46.700Z,1019.99
2022-11-24T00:19:03.709Z,1020.16
2022-11-24T00:34:20.682Z,1020.22
2022-11-24T00:49:36.665Z,1020.2
2022-11-24T01:04:53.688Z,1020.07
2022-11-24T01:20:09.629Z,1019.91
2022-11-24T01:35:25.623Z,1020.05
2022-11-24T01:50:42.592Z,1020.08
2022-11-24T02:06:00.573Z,1020.21
2022-11-24T02:21:17.572Z,1020.45
2022-11-24T02:36:33.548Z,1020.78
2022-11-24T02:51:49.535Z,1021
2022-11-24T03:07:06.572Z,1021.18
2022-11-24T03:22:22.478Z,1021.51
2022-11-24T03:37:38.503Z,1021.43
2022-11-24T03:52:55.438Z,1021.61
2022-11-24T04:08:13.464Z,1021.58
2022-11-24T04:23:29.412Z,1021.83
2022-11-24T04:39:23.026Z,1021.72
2022-11-24T04:54:01.377Z,1021.85
2022-11-24T05:09:18.405Z,1021.8
2022-11-24T05:24:34.497Z,1021.8
2022-11-24T05:39:51.382Z,1021.72
2022-11-24T05:55:08.338Z,1021.77
2022-11-24T06:10:25.336Z,1021.94
2022-11-24T06:25:41.320Z,1022.1
2022-11-24T06:40:57.315Z,1022.2
2022-11-24T06:56:16.202Z,1022.2
2022-11-24T07:11:34.300Z,1022.23
2022-11-24T07:26:50.227Z,1022.12
2022-11-24T07:42:06.254Z,1022.28
2022-11-24T07:57:22.249Z,1022.51
2022-11-24T08:12:39.183Z,1022.67
2022-11-24T08:27:56.193Z,1022.77
2022-11-24T08:43:13.146Z,1022.89
2022-11-24T08:58:29.172Z,1022.73
2022-11-24T09:13:46.111Z,1022.83
2022-11-24T09:29:02.126Z,1022.87
2022-11-24T09:44:18.071Z,1022.82
2022-11-24T09:59:35.307Z,1022.9
2022-11-24T10:14:53.038Z,1022.99
2022-11-24T10:30:10.010Z,1022.84
2022-11-24T10:45:25.974Z,1022.75
2022-11-24T11:00:42.016Z,1022.78
2022-11-24T11:16:00.021Z,1022.42
2022-11-24T11:31:19.254Z,1022.21
2022-11-24T11:46:32.010Z,1021.72
2022-11-24T12:01:47.906Z,1021.47
2022-11-24T12:17:05.854Z,1021.05
2022-11-24T12:32:22.832Z,1020.81
2022-11-24T12:47:39.843Z,1020.7
2022-11-24T13:02:55.870Z,1020.53
2022-11-24T13:18:12.858Z,1020.34
2022-11-24T13:33:28.753Z,1020.22
2022-11-24T13:48:44.748Z,1019.94
2022-11-24T14:04:29.442Z,1019.7
2022-11-24T14:19:19.705Z,1019.35
2022-11-24T14:34:37.965Z,1019.24
2022-11-24T14:49:52.726Z,1019.06
2022-11-24T15:05:04.869Z,1018.94
2022-11-24T15:20:20.601Z,1019.36
2022-11-24T15:21:02.445Z,1019.36
2022-11-24T15:35:38.584Z,1019.73
2022-11-24T15:50:55.566Z,1019.63
2022-11-24T16:06:12.517Z,1019.65
2022-11-24T16:21:28.500Z,1019.7
2022-11-24T16:36:44.488Z,1019.78
2022-11-24T16:52:00.503Z,1019.98
2022-11-24T17:07:19.473Z,1019.9
2022-11-24T17:22:35.404Z,1019.93
2022-11-24T17:37:51.414Z,1019.75
2022-11-24T17:53:07.383Z,1019.81
2022-11-24T18:08:24.356Z,1019.89
2022-11-24T18:23:40.346Z,1019.64
2022-11-24T18:38:57.354Z,1019.46
2022-11-24T18:54:14.286Z,1019.41
2022-11-24T19:09:31.282Z,1019.51
2022-11-24T19:24:47.261Z,1019.51
2022-11-24T19:40:03.293Z,1019.48
2022-11-24T19:55:19.212Z,1019.32
2022-11-24T20:10:36.216Z,1019.41
2022-11-24T20:25:53.197Z,1019.56
2022-11-24T20:41:10.212Z,1019.59
2022-11-24T20:56:26.167Z,1019.93
2022-11-24T21:11:43.135Z,1020.22
2022-11-24T21:26:59.131Z,1020.47
2022-11-24T21:42:15.143Z,1020.3
2022-11-24T21:57:31.117Z,1020.33
2022-11-24T22:12:48.070Z,1020.52
2022-11-24T22:28:05.089Z,1020.59
2022-11-24T22:43:23.223Z,1020.74
2022-11-24T22:58:38.071Z,1020.92
2022-11-24T23:13:55.014Z,1021.2
2022-11-24T23:29:11.031Z,1021.36
2022-11-24T23:44:26.952Z,1021.42
2022-11-24T23:59:43.928Z,1021.25
